createdAt,value
2019-03-11T00:01:23.807Z,3.64
2019-03-11T00:03:51.555Z,3.61
2019-03-11T00:06:18.885Z,3.65
2019-03-11T00:08:46.549Z,3.62
2019-03-11T00:11:14.210Z,3.50
2019-03-11T00:13:42.140Z,3.46
2019-03-11T00:16:09.694Z,3.42
2019-03-11T00:18:37.183Z,3.34
2019-03-11T00:21:04.825Z,3.38
2019-03-11T00:23:32.646Z,3.36
2019-03-11T00:26:00.397Z,3.39
2019-03-11T00:28:28.340Z,3.29
2019-03-11T00:30:55.918Z,3.35
2019-03-11T00:33:24.511Z,3.32
2019-03-11T00:35:51.984Z,3.39
2019-03-11T00:38:20.249Z,3.39
2019-03-11T00:40:47.921Z,3.40
2019-03-11T00:43:15.625Z,3.29
2019-03-11T00:45:43.353Z,3.34
2019-03-11T00:48:11.063Z,3.27
2019-03-11T00:50:38.807Z,3.31
2019-03-11T00:53:06.359Z,3.27
2019-03-11T00:55:34.091Z,3.27
2019-03-11T00:58:02.101Z,3.24
2019-03-11T01:00:32.919Z,3.29
2019-03-11T01:03:00.670Z,3.25
2019-03-11T01:05:28.549Z,3.23
2019-03-11T01:07:56.399Z,3.25
2019-03-11T01:10:24.227Z,3.23
2019-03-11T01:12:51.481Z,3.22
2019-03-11T01:15:19.166Z,3.22
2019-03-11T01:17:47.340Z,3.16
2019-03-11T01:20:14.886Z,3.19
2019-03-11T01:22:42.324Z,3.19
2019-03-11T01:25:10.278Z,3.22
2019-03-11T01:27:38.112Z,3.28
2019-03-11T01:30:06.086Z,3.30
2019-03-11T01:32:34.367Z,3.33
2019-03-11T01:35:02.228Z,3.40
2019-03-11T01:37:29.577Z,3.42
2019-03-11T01:39:57.056Z,3.39
2019-03-11T01:42:24.496Z,3.48
2019-03-11T01:44:52.129Z,3.53
2019-03-11T01:47:19.951Z,3.62
2019-03-11T01:49:47.580Z,3.60
2019-03-11T01:52:15.167Z,3.67
2019-03-11T01:54:43.427Z,3.71
2019-03-11T01:57:10.967Z,3.76
2019-03-11T01:59:38.374Z,3.81
2019-03-11T02:02:06.701Z,3.82
2019-03-11T02:04:34.257Z,3.84
2019-03-11T02:07:02.075Z,3.91
2019-03-11T02:09:29.776Z,3.94
2019-03-11T02:11:57.566Z,3.90
2019-03-11T02:14:25.454Z,3.96
2019-03-11T02:16:53.106Z,3.95
2019-03-11T02:19:20.369Z,3.97
2019-03-11T02:21:48.348Z,3.99
2019-03-11T02:24:16.332Z,3.94
2019-03-11T02:26:44.135Z,3.83
2019-03-11T02:29:11.998Z,3.84
2019-03-11T02:31:39.781Z,3.89
2019-03-11T02:34:06.930Z,3.93
2019-03-11T02:36:34.762Z,3.89
2019-03-11T02:39:02.880Z,3.97
2019-03-11T02:41:30.604Z,4.02
2019-03-11T02:43:58.431Z,3.99
2019-03-11T02:46:26.442Z,3.93
2019-03-11T02:48:53.854Z,4.01
2019-03-11T02:51:21.292Z,4.02
2019-03-11T02:53:49.159Z,3.97
2019-03-11T02:56:17.167Z,4.02
2019-03-11T02:58:44.901Z,4.03
2019-03-11T03:01:30.346Z,4.06
2019-03-11T03:04:02.083Z,4.05
2019-03-11T03:06:29.650Z,4.08
2019-03-11T03:08:57.265Z,4.13
2019-03-11T03:11:25.443Z,4.14
2019-03-11T03:13:52.765Z,4.25
2019-03-11T03:16:20.615Z,4.31
2019-03-11T03:18:47.801Z,4.34
2019-03-11T03:21:15.401Z,4.42
2019-03-11T03:23:43.373Z,4.43
2019-03-11T03:26:11.234Z,4.45
2019-03-11T03:28:38.771Z,4.41
2019-03-11T03:31:06.362Z,4.49
2019-03-11T03:33:34.602Z,4.51
2019-03-11T03:36:02.552Z,4.62
2019-03-11T03:38:31.385Z,4.58
2019-03-11T03:40:59.191Z,4.68
2019-03-11T03:43:27.048Z,4.69
2019-03-11T03:45:54.439Z,4.65
2019-03-11T03:48:22.327Z,4.48
2019-03-11T03:50:49.700Z,4.32
2019-03-11T03:53:17.822Z,4.21
2019-03-11T03:55:45.693Z,4.13
2019-03-11T03:58:13.405Z,4.09
2019-03-11T04:00:40.935Z,4.02
2019-03-11T04:03:08.816Z,4.07
2019-03-11T04:05:36.091Z,3.99
2019-03-11T04:08:03.845Z,4.06
2019-03-11T04:10:33.164Z,4.00
2019-03-11T04:13:01.106Z,4.04
2019-03-11T04:15:28.525Z,4.02
2019-03-11T04:17:56.048Z,3.92
2019-03-11T04:20:24.747Z,3.89
2019-03-11T04:22:52.255Z,3.90
2019-03-11T04:25:20.023Z,3.90
2019-03-11T04:27:47.677Z,3.86
2019-03-11T04:30:18.255Z,3.82
2019-03-11T04:32:46.129Z,3.79
2019-03-11T04:35:14.022Z,3.73
2019-03-11T04:37:41.713Z,3.73
2019-03-11T04:40:10.902Z,3.61
2019-03-11T04:42:38.464Z,3.70
2019-03-11T04:45:07.549Z,3.64
2019-03-11T04:47:35.332Z,3.68
2019-03-11T04:50:03.556Z,3.63
2019-03-11T04:52:31.176Z,3.68
2019-03-11T04:54:59.014Z,3.66
2019-03-11T04:57:27.216Z,3.66
2019-03-11T04:59:54.804Z,3.65
2019-03-11T05:02:22.578Z,3.59
2019-03-11T05:04:50.763Z,3.58
2019-03-11T05:07:18.239Z,3.51
2019-03-11T05:09:46.226Z,3.46
2019-03-11T05:12:13.903Z,3.55
2019-03-11T05:14:41.618Z,3.50
2019-03-11T05:17:09.459Z,3.43
2019-03-11T05:19:37.259Z,3.27
2019-03-11T05:22:05.284Z,3.05
2019-03-11T05:24:32.878Z,2.88
2019-03-11T05:27:00.570Z,2.76
2019-03-11T05:29:27.915Z,2.67
2019-03-11T05:31:55.293Z,2.72
2019-03-11T05:34:22.899Z,2.71
2019-03-11T05:36:50.225Z,2.63
2019-03-11T05:39:18.069Z,2.68
2019-03-11T05:41:46.373Z,2.66
2019-03-11T05:44:14.040Z,2.62
2019-03-11T05:46:41.457Z,2.57
2019-03-11T05:49:08.795Z,2.56
2019-03-11T05:51:36.664Z,2.55
2019-03-11T05:54:04.024Z,2.55
2019-03-11T05:56:31.865Z,2.52
2019-03-11T05:58:59.921Z,2.53
2019-03-11T06:01:27.163Z,2.51
2019-03-11T06:03:55.290Z,2.52
2019-03-11T06:06:23.711Z,2.54
2019-03-11T06:08:51.841Z,2.62
2019-03-11T06:11:19.466Z,2.72
2019-03-11T06:13:47.570Z,2.69
2019-03-11T06:16:16.179Z,2.79
2019-03-11T06:18:47.734Z,2.88
2019-03-11T06:21:35.233Z,2.86
2019-03-11T06:24:03.162Z,2.74
2019-03-11T06:26:30.795Z,2.85
2019-03-11T06:28:58.437Z,2.99
2019-03-11T06:31:26.713Z,2.97
2019-03-11T06:33:55.027Z,2.94
2019-03-11T06:36:22.749Z,3.04
2019-03-11T06:38:50.445Z,3.10
2019-03-11T06:41:17.967Z,3.14
2019-03-11T06:43:45.541Z,3.19
2019-03-11T06:46:12.739Z,3.14
2019-03-11T06:48:41.184Z,2.99
2019-03-11T06:51:08.725Z,3.15
2019-03-11T06:53:35.965Z,3.08
2019-03-11T06:56:03.779Z,2.98
2019-03-11T06:58:31.196Z,2.80
2019-03-11T07:00:59.164Z,2.96
2019-03-11T07:03:26.943Z,2.93
2019-03-11T07:05:54.588Z,2.97
2019-03-11T07:08:22.114Z,3.07
2019-03-11T07:10:49.793Z,3.21
2019-03-11T07:13:17.505Z,3.64
2019-03-11T07:15:45.477Z,4.27
2019-03-11T07:18:13.048Z,4.39
2019-03-11T07:20:40.325Z,4.31
2019-03-11T07:23:07.819Z,4.53
2019-03-11T07:25:35.500Z,4.70
2019-03-11T07:28:03.075Z,4.85
2019-03-11T07:30:33.774Z,5.24
2019-03-11T07:33:02.128Z,5.36
2019-03-11T07:35:29.814Z,5.41
2019-03-11T07:37:57.460Z,5.40
2019-03-11T07:40:30.140Z,5.49
2019-03-11T07:42:55.451Z,5.68
2019-03-11T07:45:23.122Z,5.86
2019-03-11T07:47:50.432Z,6.19
2019-03-11T07:50:18.064Z,6.44
2019-03-11T07:52:46.203Z,6.57
2019-03-11T07:55:13.863Z,6.78
2019-03-11T07:57:41.457Z,6.92
2019-03-11T08:00:09.798Z,7.15
2019-03-11T08:02:37.928Z,7.27
2019-03-11T08:05:06.946Z,7.41
2019-03-11T08:07:34.690Z,7.75
2019-03-11T08:10:02.212Z,7.93
2019-03-11T08:12:29.616Z,8.01
2019-03-11T08:14:57.155Z,8.11
2019-03-11T08:17:24.547Z,8.08
2019-03-11T08:19:52.719Z,7.96
2019-03-11T08:22:20.118Z,7.94
2019-03-11T08:24:47.545Z,7.94
2019-03-11T08:27:15.086Z,7.98
2019-03-11T08:29:42.605Z,8.15
2019-03-11T08:32:09.861Z,8.27
2019-03-11T08:34:38.352Z,7.52
2019-03-11T08:37:06.939Z,7.86
2019-03-11T08:39:35.001Z,8.00
2019-03-11T08:42:02.729Z,8.03
2019-03-11T08:44:30.104Z,8.58
2019-03-11T08:46:57.526Z,8.77
2019-03-11T08:49:25.151Z,9.09
2019-03-11T08:51:52.648Z,8.90
2019-03-11T08:54:20.234Z,9.01
2019-03-11T08:56:47.574Z,9.38
2019-03-11T08:59:16.692Z,9.65
2019-03-11T09:01:44.537Z,10.21
2019-03-11T09:04:12.214Z,10.98
2019-03-11T09:06:39.913Z,11.18
2019-03-11T09:09:11.330Z,11.21
2019-03-11T09:11:39.677Z,10.97
2019-03-11T09:14:07.403Z,10.83
2019-03-11T09:16:35.526Z,10.45
2019-03-11T09:19:03.200Z,10.26
2019-03-11T09:21:30.863Z,10.07
2019-03-11T09:23:58.896Z,9.93
2019-03-11T09:26:26.485Z,9.87
2019-03-11T09:28:54.403Z,9.80
2019-03-11T09:31:22.121Z,9.70
2019-03-11T09:33:50.022Z,9.44
2019-03-11T09:36:17.674Z,9.72
2019-03-11T09:38:45.361Z,9.50
2019-03-11T09:41:12.961Z,9.64
2019-03-11T09:43:40.497Z,9.22
2019-03-11T09:46:07.936Z,9.20
2019-03-11T09:48:35.205Z,9.14
2019-03-11T09:51:02.968Z,9.45
2019-03-11T09:53:31.137Z,8.92
2019-03-11T09:55:58.719Z,9.00
2019-03-11T09:58:26.687Z,9.10
2019-03-11T10:00:54.651Z,9.26
2019-03-11T10:03:21.852Z,9.26
2019-03-11T10:05:49.286Z,9.37
2019-03-11T10:08:16.919Z,9.91
2019-03-11T10:10:44.707Z,9.81
2019-03-11T10:13:12.113Z,10.33
2019-03-11T10:15:39.768Z,10.54
2019-03-11T10:18:07.150Z,10.53
2019-03-11T10:20:34.784Z,10.33
2019-03-11T10:23:02.066Z,10.57
2019-03-11T10:25:30.231Z,10.94
2019-03-11T10:27:58.148Z,10.83
2019-03-11T10:30:28.564Z,11.33
2019-03-11T10:32:57.156Z,11.72
2019-03-11T10:35:31.894Z,11.92
2019-03-11T10:37:54.315Z,12.01
2019-03-11T10:40:21.723Z,12.18
2019-03-11T10:42:49.116Z,12.21
2019-03-11T10:45:16.951Z,12.20
2019-03-11T10:47:44.759Z,12.42
2019-03-11T10:50:12.475Z,12.50
2019-03-11T10:52:40.017Z,12.98
2019-03-11T10:55:10.059Z,12.80
2019-03-11T10:57:38.047Z,12.57
2019-03-11T11:00:10.679Z,12.48
2019-03-11T11:02:38.590Z,12.80
2019-03-11T11:05:06.786Z,13.08
2019-03-11T11:07:34.390Z,12.76
2019-03-11T11:10:02.155Z,12.52
2019-03-11T11:12:30.032Z,12.71
2019-03-11T11:14:57.217Z,13.20
2019-03-11T11:17:24.705Z,13.54
2019-03-11T11:20:02.878Z,13.49
2019-03-11T11:22:22.339Z,13.35
2019-03-11T11:24:49.609Z,13.70
2019-03-11T11:27:17.303Z,13.89
2019-03-11T11:29:45.398Z,14.15
2019-03-11T11:32:13.478Z,14.78
2019-03-11T11:34:41.330Z,14.59
2019-03-11T11:37:09.062Z,14.60
2019-03-11T11:39:36.431Z,14.72
2019-03-11T11:42:04.642Z,14.55
2019-03-11T11:44:31.937Z,14.42
2019-03-11T11:46:59.696Z,14.38
2019-03-11T11:49:27.418Z,13.90
2019-03-11T11:51:55.497Z,13.87
2019-03-11T11:54:23.208Z,13.60
2019-03-11T11:56:51.427Z,13.46
2019-03-11T11:59:19.349Z,13.34
2019-03-11T12:02:03.287Z,12.93
2019-03-11T12:04:24.452Z,12.86
2019-03-11T12:06:51.874Z,12.50
2019-03-11T12:09:19.649Z,12.39
2019-03-11T12:11:47.871Z,12.27
2019-03-11T12:14:15.710Z,11.93
2019-03-11T12:16:43.268Z,11.94
2019-03-11T12:19:11.117Z,11.72
2019-03-11T12:21:38.961Z,11.20
2019-03-11T12:24:07.679Z,11.56
2019-03-11T12:26:35.757Z,11.69
2019-03-11T12:29:03.972Z,11.45
2019-03-11T12:31:31.771Z,11.58
2019-03-11T12:33:59.681Z,11.30
2019-03-11T12:36:27.416Z,11.25
2019-03-11T12:38:54.710Z,11.02
2019-03-11T12:41:22.104Z,11.06
2019-03-11T12:43:50.189Z,10.85
2019-03-11T12:46:20.562Z,10.90
2019-03-11T12:48:49.049Z,10.61
2019-03-11T12:51:17.235Z,10.61
2019-03-11T12:53:44.439Z,10.52
2019-03-11T12:56:12.626Z,10.47
2019-03-11T12:58:41.818Z,10.24
2019-03-11T13:01:09.658Z,10.35
2019-03-11T13:03:37.526Z,10.10
2019-03-11T13:06:05.054Z,10.10
2019-03-11T13:08:32.460Z,9.92
2019-03-11T13:11:00.291Z,10.00
2019-03-11T13:13:28.137Z,9.94
2019-03-11T13:15:55.612Z,9.77
2019-03-11T13:18:35.303Z,9.73
2019-03-11T13:21:20.365Z,9.61
2019-03-11T13:23:47.914Z,9.74
2019-03-11T13:26:15.249Z,9.70
2019-03-11T13:28:43.173Z,9.72
2019-03-11T13:31:10.747Z,9.61
2019-03-11T13:33:38.744Z,9.61
2019-03-11T13:36:07.604Z,9.60
2019-03-11T13:38:36.626Z,9.54
2019-03-11T13:41:04.665Z,9.57
2019-03-11T13:43:32.142Z,9.46
2019-03-11T13:45:59.975Z,9.49
2019-03-11T13:48:27.676Z,9.44
2019-03-11T13:50:55.440Z,9.32
2019-03-11T13:53:23.186Z,9.12
2019-03-11T13:55:50.747Z,9.11
2019-03-11T13:58:18.050Z,9.16
2019-03-11T14:00:56.065Z,9.04
2019-03-11T14:03:14.757Z,9.09
2019-03-11T14:05:42.191Z,9.07
2019-03-11T14:08:10.322Z,9.06
2019-03-11T14:10:37.944Z,9.15
2019-03-11T14:13:05.798Z,9.26
2019-03-11T14:15:33.466Z,9.24
2019-03-11T14:18:01.459Z,9.16
2019-03-11T14:20:31.663Z,9.15
2019-03-11T14:22:59.558Z,8.93
2019-03-11T14:25:26.847Z,9.07
2019-03-11T14:27:54.668Z,9.07
2019-03-11T14:30:22.261Z,9.01
2019-03-11T14:32:50.270Z,9.11
2019-03-11T14:35:18.139Z,9.21
2019-03-11T14:37:45.909Z,9.22
2019-03-11T14:40:13.434Z,9.27
2019-03-11T14:42:41.562Z,9.29
2019-03-11T14:45:12.038Z,9.24
2019-03-11T14:47:39.436Z,9.29
2019-03-11T14:50:07.966Z,9.21
2019-03-11T14:52:35.750Z,9.22
2019-03-11T14:55:03.725Z,9.18
2019-03-11T14:57:31.371Z,9.26
2019-03-11T14:59:59.706Z,9.23
2019-03-11T15:02:27.468Z,9.05
2019-03-11T15:04:54.884Z,8.97
2019-03-11T15:07:22.303Z,8.78
2019-03-11T15:09:51.629Z,8.82
2019-03-11T15:12:19.687Z,8.87
2019-03-11T15:14:47.516Z,8.86
2019-03-11T15:17:15.238Z,8.63
2019-03-11T15:19:43.229Z,8.61
2019-03-11T15:22:10.481Z,8.55
2019-03-11T15:24:38.431Z,8.43
2019-03-11T15:27:06.434Z,8.30
2019-03-11T15:29:33.867Z,8.31
2019-03-11T15:32:02.363Z,8.30
2019-03-11T15:34:30.161Z,8.39
2019-03-11T15:36:57.891Z,8.19
2019-03-11T15:39:25.688Z,8.25
2019-03-11T15:41:53.367Z,8.05
2019-03-11T15:44:20.932Z,8.07
2019-03-11T15:46:48.653Z,8.05
2019-03-11T15:49:16.362Z,7.98
2019-03-11T15:51:43.995Z,7.97
2019-03-11T15:54:11.693Z,7.94
2019-03-11T15:56:39.464Z,7.98
2019-03-11T15:59:07.294Z,7.75
2019-03-11T16:01:35.401Z,7.76
2019-03-11T16:04:02.975Z,7.76
2019-03-11T16:06:31.377Z,7.90
2019-03-11T16:08:59.338Z,7.70
2019-03-11T16:11:27.416Z,7.54
2019-03-11T16:13:55.151Z,7.61
2019-03-11T16:16:23.060Z,7.46
2019-03-11T16:18:50.844Z,7.39
2019-03-11T16:21:18.598Z,6.87
2019-03-11T16:23:46.300Z,7.03
2019-03-11T16:26:14.406Z,6.92
2019-03-11T16:28:48.108Z,6.95
2019-03-11T16:31:11.586Z,6.66
2019-03-11T16:33:39.315Z,6.66
2019-03-11T16:36:06.742Z,6.56
2019-03-11T16:38:34.434Z,6.52
2019-03-11T16:41:02.215Z,6.45
2019-03-11T16:43:30.073Z,6.20
2019-03-11T16:45:58.077Z,6.12
2019-03-11T16:48:26.013Z,6.11
2019-03-11T16:50:53.254Z,6.04
2019-03-11T16:53:21.109Z,6.02
2019-03-11T16:55:49.942Z,5.90
2019-03-11T16:58:17.811Z,5.93
2019-03-11T17:00:45.638Z,6.06
2019-03-11T17:03:13.659Z,6.04
2019-03-11T17:05:41.383Z,5.81
2019-03-11T17:08:09.202Z,6.03
2019-03-11T17:10:36.704Z,6.00
2019-03-11T17:13:04.280Z,6.00
2019-03-11T17:15:32.509Z,5.97
2019-03-11T17:18:00.588Z,5.98
2019-03-11T17:20:29.078Z,5.90
2019-03-11T17:22:56.845Z,6.01
2019-03-11T17:25:24.864Z,6.00
2019-03-11T17:27:52.702Z,5.95
2019-03-11T17:30:20.262Z,5.84
2019-03-11T17:32:47.757Z,5.92
2019-03-11T17:35:15.639Z,6.00
2019-03-11T17:37:43.461Z,5.89
2019-03-11T17:40:13.987Z,6.06
2019-03-11T17:42:41.494Z,6.13
2019-03-11T17:45:09.657Z,6.18
2019-03-11T17:47:37.724Z,6.11
2019-03-11T17:50:07.363Z,6.16
2019-03-11T17:52:34.991Z,6.10
2019-03-11T17:55:03.457Z,6.16
2019-03-11T17:57:31.157Z,6.02
2019-03-11T17:59:59.066Z,6.28
2019-03-11T18:02:26.894Z,6.18
2019-03-11T18:04:54.943Z,6.29
2019-03-11T18:07:22.182Z,6.32
2019-03-11T18:09:49.618Z,6.41
2019-03-11T18:12:17.496Z,6.39
2019-03-11T18:14:45.286Z,6.43
2019-03-11T18:17:12.709Z,6.33
2019-03-11T18:19:40.267Z,6.37
2019-03-11T18:22:07.661Z,6.37
2019-03-11T18:24:35.704Z,6.34
2019-03-11T18:27:03.480Z,6.40
2019-03-11T18:29:31.919Z,6.35
2019-03-11T18:32:02.231Z,6.45
2019-03-11T18:34:29.321Z,6.54
2019-03-11T18:36:57.619Z,6.48
2019-03-11T18:39:25.276Z,6.36
2019-03-11T18:41:53.896Z,6.38
2019-03-11T18:44:21.452Z,6.54
2019-03-11T18:46:49.085Z,6.51
2019-03-11T18:49:17.109Z,6.53
2019-03-11T18:51:44.614Z,6.28
2019-03-11T18:54:12.699Z,6.45
2019-03-11T18:56:40.944Z,6.34
2019-03-11T18:59:08.382Z,6.54
2019-03-11T19:01:36.121Z,6.56
2019-03-11T19:04:04.395Z,6.64
2019-03-11T19:06:32.230Z,6.64
2019-03-11T19:08:59.739Z,6.65
2019-03-11T19:11:27.559Z,6.64
2019-03-11T19:13:55.416Z,6.64
2019-03-11T19:16:23.505Z,6.66
2019-03-11T19:18:50.746Z,6.62
2019-03-11T19:21:18.673Z,6.68
2019-03-11T19:23:46.502Z,6.74
2019-03-11T19:26:14.285Z,6.58
2019-03-11T19:28:42.398Z,6.73
2019-03-11T19:31:10.068Z,6.73
2019-03-11T19:33:38.270Z,6.71
2019-03-11T19:36:05.854Z,6.76
2019-03-11T19:38:34.025Z,6.79
2019-03-11T19:41:01.719Z,6.76
2019-03-11T19:43:29.574Z,6.84
2019-03-11T19:45:57.609Z,6.85
2019-03-11T19:48:25.002Z,6.83
2019-03-11T19:52:00.133Z,6.79
2019-03-11T19:54:27.485Z,6.76
2019-03-11T19:56:55.267Z,6.72
2019-03-11T19:59:23.797Z,6.76
2019-03-11T20:01:52.069Z,6.84
2019-03-11T20:04:19.458Z,6.84
2019-03-11T20:06:47.287Z,6.89
2019-03-11T20:09:45.504Z,6.74
2019-03-11T20:12:13.331Z,6.75
2019-03-11T20:14:41.012Z,6.75
2019-03-11T20:17:08.623Z,6.82
2019-03-11T20:19:36.732Z,6.84
2019-03-11T20:22:05.189Z,6.88
2019-03-11T20:24:32.727Z,6.77
2019-03-11T20:27:00.931Z,6.98
2019-03-11T20:29:28.415Z,6.87
2019-03-11T20:31:56.609Z,6.87
2019-03-11T20:34:24.669Z,6.95
2019-03-11T20:36:52.392Z,6.95
2019-03-11T20:39:20.785Z,6.92
2019-03-11T20:41:48.357Z,6.95
2019-03-11T20:44:16.346Z,6.82
2019-03-11T20:46:44.444Z,6.88
2019-03-11T20:49:12.655Z,6.95
2019-03-11T20:51:40.674Z,6.86
2019-03-11T20:54:08.512Z,6.94
2019-03-11T20:56:36.392Z,6.80
2019-03-11T20:59:03.817Z,6.90
2019-03-11T21:01:32.351Z,6.92
2019-03-11T21:03:59.758Z,6.92
2019-03-11T21:06:27.431Z,6.92
2019-03-11T21:08:55.533Z,6.86
2019-03-11T21:11:22.995Z,6.94
2019-03-11T21:13:51.030Z,6.96
2019-03-11T21:16:18.930Z,6.97
2019-03-11T21:18:46.209Z,6.95
2019-03-11T21:21:14.351Z,6.94
2019-03-11T21:23:41.892Z,6.93
2019-03-11T21:26:10.074Z,6.92
2019-03-11T21:28:37.835Z,6.87
2019-03-11T21:31:05.503Z,6.91
2019-03-11T21:33:33.214Z,6.84
2019-03-11T21:36:01.280Z,6.91
2019-03-11T21:38:28.819Z,6.76
2019-03-11T21:40:57.147Z,6.80
2019-03-11T21:43:24.587Z,6.81
2019-03-11T21:45:52.682Z,6.83
2019-03-11T21:48:20.298Z,6.88
2019-03-11T21:50:48.550Z,6.70
2019-03-11T21:53:16.464Z,6.79
2019-03-11T21:55:43.984Z,6.77
2019-03-11T21:58:13.415Z,6.76
2019-03-11T22:00:41.309Z,6.76
2019-03-11T22:03:09.104Z,6.81
2019-03-11T22:05:36.701Z,6.81
2019-03-11T22:08:04.104Z,6.75
2019-03-11T22:10:31.767Z,6.64
2019-03-11T22:12:59.540Z,6.63
2019-03-11T22:15:27.234Z,6.70
2019-03-11T22:17:54.942Z,6.57
2019-03-11T22:20:23.059Z,6.46
2019-03-11T22:22:50.363Z,6.36
2019-03-11T22:25:17.943Z,6.29
2019-03-11T22:27:46.042Z,6.22
2019-03-11T22:30:15.944Z,6.16
2019-03-11T22:32:44.090Z,6.10
2019-03-11T22:35:13.013Z,5.93
2019-03-11T22:37:41.116Z,5.91
2019-03-11T22:40:09.321Z,5.74
2019-03-11T22:42:37.100Z,5.67
2019-03-11T22:45:07.096Z,5.61
2019-03-11T22:47:35.170Z,5.55
2019-03-11T22:50:03.532Z,5.49
2019-03-11T22:52:32.122Z,5.52
2019-03-11T22:54:59.392Z,5.45
2019-03-11T22:57:29.800Z,5.44
2019-03-11T22:59:57.348Z,5.38
2019-03-11T23:02:25.162Z,5.43
2019-03-11T23:04:52.837Z,5.27
2019-03-11T23:07:20.210Z,5.35
2019-03-11T23:09:47.859Z,5.32
2019-03-11T23:12:15.334Z,5.31
2019-03-11T23:14:43.186Z,5.29
2019-03-11T23:17:10.713Z,5.31
2019-03-11T23:19:38.559Z,5.30
2019-03-11T23:22:06.913Z,5.27
2019-03-11T23:24:34.832Z,5.31
2019-03-11T23:27:02.398Z,5.11
2019-03-11T23:29:30.409Z,5.23
2019-03-11T23:31:58.110Z,5.31
2019-03-11T23:34:25.636Z,5.27
2019-03-11T23:36:53.157Z,5.33
2019-03-11T23:39:21.052Z,5.33
2019-03-11T23:41:48.468Z,5.15
2019-03-11T23:44:15.605Z,5.14
2019-03-11T23:46:43.190Z,5.12
2019-03-11T23:49:10.372Z,5.06
2019-03-11T23:51:37.998Z,5.02
2019-03-11T23:54:05.790Z,4.98
2019-03-11T23:56:33.245Z,5.04
2019-03-11T23:59:00.512Z,5.07
